sensor_id;sensor_type;location;lat;lon;timestamp;P1;durP1;ratioP1;P2;durP2;ratioP2
15082;SDS011;7640;53.116;6.878;2023-09-19T00:00:58;10.37;;;2.60;;
15082;SDS011;7640;53.116;6.878;2023-09-19T00:03:29;7.37;;;2.57;;
15082;SDS011;7640;53.116;6.878;2023-09-19T00:06:00;7.60;;;2.30;;
15082;SDS011;7640;53.116;6.878;2023-09-19T00:08:32;7.10;;;2.87;;
15082;SDS011;7640;53.116;6.878;2023-09-19T00:11:01;8.20;;;2.67;;
15082;SDS011;7640;53.116;6.878;2023-09-19T00:13:35;7.47;;;2.60;;
15082;SDS011;7640;53.116;6.878;2023-09-19T00:16:10;10.57;;;2.60;;
15082;SDS011;7640;53.116;6.878;2023-09-19T00:18:45;8.33;;;2.93;;
15082;SDS011;7640;53.116;6.878;2023-09-19T00:21:17;6.77;;;2.67;;
15082;SDS011;7640;53.116;6.878;2023-09-19T00:23:47;9.63;;;2.90;;
15082;SDS011;7640;53.116;6.878;2023-09-19T00:26:18;5.63;;;2.40;;
15082;SDS011;7640;53.116;6.878;2023-09-19T00:28:53;11.20;;;2.60;;
15082;SDS011;7640;53.116;6.878;2023-09-19T00:31:23;7.87;;;2.63;;
15082;SDS011;7640;53.116;6.878;2023-09-19T00:33:54;7.70;;;2.90;;
15082;SDS011;7640;53.116;6.878;2023-09-19T00:36:29;5.37;;;2.30;;
15082;SDS011;7640;53.116;6.878;2023-09-19T00:39:00;6.03;;;2.40;;
15082;SDS011;7640;53.116;6.878;2023-09-19T00:41:33;9.37;;;2.47;;
15082;SDS011;7640;53.116;6.878;2023-09-19T00:44:06;17.83;;;3.20;;
15082;SDS011;7640;53.116;6.878;2023-09-19T00:46:47;6.17;;;2.50;;
15082;SDS011;7640;53.116;6.878;2023-09-19T00:49:26;10.13;;;2.63;;
15082;SDS011;7640;53.116;6.878;2023-09-19T00:51:59;8.23;;;2.37;;
15082;SDS011;7640;53.116;6.878;2023-09-19T00:54:33;7.80;;;2.43;;
15082;SDS011;7640;53.116;6.878;2023-09-19T00:57:04;6.90;;;2.33;;
15082;SDS011;7640;53.116;6.878;2023-09-19T00:59:37;7.00;;;2.43;;
15082;SDS011;7640;53.116;6.878;2023-09-19T01:02:06;9.80;;;2.70;;
15082;SDS011;7640;53.116;6.878;2023-09-19T01:04:38;10.07;;;2.50;;
15082;SDS011;7640;53.116;6.878;2023-09-19T01:07:12;7.43;;;2.50;;
15082;SDS011;7640;53.116;6.878;2023-09-19T01:09:44;8.23;;;2.97;;
15082;SDS011;7640;53.116;6.878;2023-09-19T01:12:17;6.00;;;2.27;;
15082;SDS011;7640;53.116;6.878;2023-09-19T01:15:01;8.93;;;2.47;;
15082;SDS011;7640;53.116;6.878;2023-09-19T01:17:42;8.53;;;2.80;;
15082;SDS011;7640;53.116;6.878;2023-09-19T01:20:36;11.23;;;3.03;;
15082;SDS011;7640;53.116;6.878;2023-09-19T01:23:14;8.73;;;2.50;;
15082;SDS011;7640;53.116;6.878;2023-09-19T01:28:53;10.20;;;2.37;;
15082;SDS011;7640;53.116;6.878;2023-09-19T01:31:42;10.50;;;2.47;;
15082;SDS011;7640;53.116;6.878;2023-09-19T01:34:26;8.17;;;2.50;;
15082;SDS011;7640;53.116;6.878;2023-09-19T01:37:03;7.73;;;2.80;;
15082;SDS011;7640;53.116;6.878;2023-09-19T01:39:33;9.30;;;2.53;;
15082;SDS011;7640;53.116;6.878;2023-09-19T01:42:08;9.17;;;2.40;;
15082;SDS011;7640;53.116;6.878;2023-09-19T01:44:52;13.23;;;2.93;;
15082;SDS011;7640;53.116;6.878;2023-09-19T01:47:37;9.13;;;2.80;;
15082;SDS011;7640;53.116;6.878;2023-09-19T01:50:20;9.67;;;2.97;;
15082;SDS011;7640;53.116;6.878;2023-09-19T01:53:07;7.97;;;2.80;;
15082;SDS011;7640;53.116;6.878;2023-09-19T01:55:46;13.20;;;3.67;;
15082;SDS011;7640;53.116;6.878;2023-09-19T01:58:21;7.57;;;2.90;;
15082;SDS011;7640;53.116;6.878;2023-09-19T02:01:03;12.77;;;3.13;;
15082;SDS011;7640;53.116;6.878;2023-09-19T02:03:38;9.20;;;3.20;;
15082;SDS011;7640;53.116;6.878;2023-09-19T02:06:14;9.07;;;2.93;;
15082;SDS011;7640;53.116;6.878;2023-09-19T02:08:51;10.53;;;3.10;;
15082;SDS011;7640;53.116;6.878;2023-09-19T02:11:25;9.30;;;3.00;;
15082;SDS011;7640;53.116;6.878;2023-09-19T02:13:57;9.53;;;3.27;;
15082;SDS011;7640;53.116;6.878;2023-09-19T02:16:37;12.30;;;3.33;;
15082;SDS011;7640;53.116;6.878;2023-09-19T02:19:10;6.37;;;2.60;;
15082;SDS011;7640;53.116;6.878;2023-09-19T02:21:42;10.70;;;3.23;;
15082;SDS011;7640;53.116;6.878;2023-09-19T02:24:13;6.47;;;2.67;;
15082;SDS011;7640;53.116;6.878;2023-09-19T02:26:44;5.80;;;2.57;;
15082;SDS011;7640;53.116;6.878;2023-09-19T02:29:17;8.97;;;2.90;;
15082;SDS011;7640;53.116;6.878;2023-09-19T02:31:48;9.27;;;3.30;;
15082;SDS011;7640;53.116;6.878;2023-09-19T02:34:19;10.47;;;2.90;;
15082;SDS011;7640;53.116;6.878;2023-09-19T02:36:50;8.43;;;3.10;;
15082;SDS011;7640;53.116;6.878;2023-09-19T02:39:29;9.37;;;2.90;;
15082;SDS011;7640;53.116;6.878;2023-09-19T02:42:01;10.70;;;3.00;;
15082;SDS011;7640;53.116;6.878;2023-09-19T02:44:36;9.07;;;2.83;;
15082;SDS011;7640;53.116;6.878;2023-09-19T02:47:07;9.87;;;3.13;;
15082;SDS011;7640;53.116;6.878;2023-09-19T02:49:40;8.23;;;3.13;;
15082;SDS011;7640;53.116;6.878;2023-09-19T02:52:11;9.60;;;2.70;;
15082;SDS011;7640;53.116;6.878;2023-09-19T02:54:42;11.67;;;3.20;;
15082;SDS011;7640;53.116;6.878;2023-09-19T02:57:14;13.50;;;3.20;;
15082;SDS011;7640;53.116;6.878;2023-09-19T02:59:46;12.40;;;2.90;;
15082;SDS011;7640;53.116;6.878;2023-09-19T03:02:16;15.23;;;3.23;;
15082;SDS011;7640;53.116;6.878;2023-09-19T03:04:48;10.77;;;2.97;;
15082;SDS011;7640;53.116;6.878;2023-09-19T03:07:23;10.63;;;3.40;;
15082;SDS011;7640;53.116;6.878;2023-09-19T03:09:55;8.37;;;2.87;;
15082;SDS011;7640;53.116;6.878;2023-09-19T03:12:25;8.40;;;2.90;;
15082;SDS011;7640;53.116;6.878;2023-09-19T03:14:56;10.20;;;3.03;;
15082;SDS011;7640;53.116;6.878;2023-09-19T03:17:33;7.37;;;3.10;;
15082;SDS011;7640;53.116;6.878;2023-09-19T03:20:08;7.13;;;2.60;;
15082;SDS011;7640;53.116;6.878;2023-09-19T03:22:44;7.80;;;3.00;;
15082;SDS011;7640;53.116;6.878;2023-09-19T03:25:20;7.97;;;2.77;;
15082;SDS011;7640;53.116;6.878;2023-09-19T03:27:51;8.13;;;3.33;;
15082;SDS011;7640;53.116;6.878;2023-09-19T03:30:22;7.97;;;2.80;;
15082;SDS011;7640;53.116;6.878;2023-09-19T03:32:54;7.10;;;2.53;;
15082;SDS011;7640;53.116;6.878;2023-09-19T03:35:30;9.90;;;2.70;;
15082;SDS011;7640;53.116;6.878;2023-09-19T03:38:00;10.47;;;3.47;;
15082;SDS011;7640;53.116;6.878;2023-09-19T03:40:33;11.07;;;3.53;;
15082;SDS011;7640;53.116;6.878;2023-09-19T03:43:06;10.20;;;2.90;;
15082;SDS011;7640;53.116;6.878;2023-09-19T03:45:38;8.97;;;2.87;;
15082;SDS011;7640;53.116;6.878;2023-09-19T03:48:09;10.67;;;3.00;;
15082;SDS011;7640;53.116;6.878;2023-09-19T03:50:41;9.03;;;2.87;;
15082;SDS011;7640;53.116;6.878;2023-09-19T03:53:12;8.13;;;2.83;;
15082;SDS011;7640;53.116;6.878;2023-09-19T03:55:44;9.17;;;2.83;;
15082;SDS011;7640;53.116;6.878;2023-09-19T03:58:15;7.50;;;2.70;;
15082;SDS011;7640;53.116;6.878;2023-09-19T04:00:49;10.23;;;2.97;;
15082;SDS011;7640;53.116;6.878;2023-09-19T04:03:21;5.43;;;3.20;;
15082;SDS011;7640;53.116;6.878;2023-09-19T04:06:04;8.60;;;2.70;;
15082;SDS011;7640;53.116;6.878;2023-09-19T04:08:36;8.30;;;2.53;;
15082;SDS011;7640;53.116;6.878;2023-09-19T04:11:10;8.43;;;2.60;;
15082;SDS011;7640;53.116;6.878;2023-09-19T04:13:42;6.47;;;2.43;;
15082;SDS011;7640;53.116;6.878;2023-09-19T04:16:19;7.27;;;2.83;;
15082;SDS011;7640;53.116;6.878;2023-09-19T04:18:49;10.07;;;2.90;;
15082;SDS011;7640;53.116;6.878;2023-09-19T04:21:22;6.53;;;2.20;;
15082;SDS011;7640;53.116;6.878;2023-09-19T04:23:55;7.80;;;2.30;;
15082;SDS011;7640;53.116;6.878;2023-09-19T04:26:26;7.83;;;2.67;;
15082;SDS011;7640;53.116;6.878;2023-09-19T04:28:56;7.00;;;3.03;;
15082;SDS011;7640;53.116;6.878;2023-09-19T04:31:28;7.77;;;2.60;;
15082;SDS011;7640;53.116;6.878;2023-09-19T04:34:00;8.10;;;3.00;;
15082;SDS011;7640;53.116;6.878;2023-09-19T04:36:33;7.80;;;2.70;;
15082;SDS011;7640;53.116;6.878;2023-09-19T04:39:04;11.30;;;2.60;;
15082;SDS011;7640;53.116;6.878;2023-09-19T04:41:34;3.77;;;2.47;;
15082;SDS011;7640;53.116;6.878;2023-09-19T04:44:09;5.87;;;2.50;;
15082;SDS011;7640;53.116;6.878;2023-09-19T04:46:41;8.80;;;3.03;;
15082;SDS011;7640;53.116;6.878;2023-09-19T04:49:13;7.97;;;2.50;;
15082;SDS011;7640;53.116;6.878;2023-09-19T04:51:47;8.10;;;2.40;;
15082;SDS011;7640;53.116;6.878;2023-09-19T04:54:16;7.33;;;2.67;;
15082;SDS011;7640;53.116;6.878;2023-09-19T04:56:51;8.07;;;2.70;;
15082;SDS011;7640;53.116;6.878;2023-09-19T04:59:20;6.63;;;2.50;;
15082;SDS011;7640;53.116;6.878;2023-09-19T05:01:50;10.03;;;3.23;;
15082;SDS011;7640;53.116;6.878;2023-09-19T05:04:20;6.40;;;2.80;;
15082;SDS011;7640;53.116;6.878;2023-09-19T05:06:52;6.93;;;2.80;;
15082;SDS011;7640;53.116;6.878;2023-09-19T05:09:23;7.53;;;2.90;;
15082;SDS011;7640;53.116;6.878;2023-09-19T05:11:55;7.27;;;2.77;;
15082;SDS011;7640;53.116;6.878;2023-09-19T05:14:25;6.77;;;2.83;;
15082;SDS011;7640;53.116;6.878;2023-09-19T05:16:56;8.50;;;2.90;;
15082;SDS011;7640;53.116;6.878;2023-09-19T05:19:27;9.77;;;2.80;;
15082;SDS011;7640;53.116;6.878;2023-09-19T05:21:58;9.33;;;2.90;;
15082;SDS011;7640;53.116;6.878;2023-09-19T05:24:33;8.87;;;3.07;;
15082;SDS011;7640;53.116;6.878;2023-09-19T05:27:04;12.27;;;2.57;;
15082;SDS011;7640;53.116;6.878;2023-09-19T05:29:36;9.03;;;3.50;;
15082;SDS011;7640;53.116;6.878;2023-09-19T05:32:13;10.27;;;3.50;;
15082;SDS011;7640;53.116;6.878;2023-09-19T05:34:46;10.23;;;3.10;;
15082;SDS011;7640;53.116;6.878;2023-09-19T05:37:22;9.30;;;3.27;;
15082;SDS011;7640;53.116;6.878;2023-09-19T05:39:55;8.13;;;2.90;;
15082;SDS011;7640;53.116;6.878;2023-09-19T05:42:29;8.33;;;3.13;;
15082;SDS011;7640;53.116;6.878;2023-09-19T05:45:01;10.07;;;3.40;;
15082;SDS011;7640;53.116;6.878;2023-09-19T05:47:38;6.47;;;3.30;;
15082;SDS011;7640;53.116;6.878;2023-09-19T05:50:12;11.13;;;3.60;;
15082;SDS011;7640;53.116;6.878;2023-09-19T05:52:53;9.77;;;3.87;;
15082;SDS011;7640;53.116;6.878;2023-09-19T05:55:28;12.67;;;3.33;;
15082;SDS011;7640;53.116;6.878;2023-09-19T05:58:07;9.87;;;3.70;;
15082;SDS011;7640;53.116;6.878;2023-09-19T06:00:41;10.87;;;4.17;;
15082;SDS011;7640;53.116;6.878;2023-09-19T06:03:14;11.50;;;3.63;;
15082;SDS011;7640;53.116;6.878;2023-09-19T06:05:45;13.10;;;4.10;;
15082;SDS011;7640;53.116;6.878;2023-09-19T06:08:20;7.80;;;3.90;;
15082;SDS011;7640;53.116;6.878;2023-09-19T06:10:49;9.97;;;3.43;;
15082;SDS011;7640;53.116;6.878;2023-09-19T06:13:21;13.67;;;3.80;;
15082;SDS011;7640;53.116;6.878;2023-09-19T06:15:56;11.87;;;4.17;;
15082;SDS011;7640;53.116;6.878;2023-09-19T06:18:31;12.50;;;3.57;;
15082;SDS011;7640;53.116;6.878;2023-09-19T06:21:02;11.97;;;3.30;;
15082;SDS011;7640;53.116;6.878;2023-09-19T06:23:36;7.70;;;3.57;;
15082;SDS011;7640;53.116;6.878;2023-09-19T06:26:11;11.43;;;3.80;;
15082;SDS011;7640;53.116;6.878;2023-09-19T06:28:44;13.07;;;3.50;;
15082;SDS011;7640;53.116;6.878;2023-09-19T06:31:18;14.10;;;3.57;;
15082;SDS011;7640;53.116;6.878;2023-09-19T06:33:53;12.43;;;3.60;;
15082;SDS011;7640;53.116;6.878;2023-09-19T06:36:24;10.27;;;3.27;;
15082;SDS011;7640;53.116;6.878;2023-09-19T06:38:57;10.00;;;3.30;;
15082;SDS011;7640;53.116;6.878;2023-09-19T06:41:29;10.77;;;3.67;;
15082;SDS011;7640;53.116;6.878;2023-09-19T06:44:06;11.77;;;3.30;;
15082;SDS011;7640;53.116;6.878;2023-09-19T06:46:38;9.57;;;3.37;;
15082;SDS011;7640;53.116;6.878;2023-09-19T06:49:12;11.40;;;3.30;;
15082;SDS011;7640;53.116;6.878;2023-09-19T06:51:45;8.10;;;2.90;;
15082;SDS011;7640;53.116;6.878;2023-09-19T06:54:21;10.60;;;3.43;;
15082;SDS011;7640;53.116;6.878;2023-09-19T06:57:02;9.80;;;3.30;;
15082;SDS011;7640;53.116;6.878;2023-09-19T06:59:40;11.30;;;3.47;;
15082;SDS011;7640;53.116;6.878;2023-09-19T07:02:20;8.93;;;2.87;;
15082;SDS011;7640;53.116;6.878;2023-09-19T07:04:50;8.40;;;2.93;;
15082;SDS011;7640;53.116;6.878;2023-09-19T07:07:24;10.87;;;3.33;;
15082;SDS011;7640;53.116;6.878;2023-09-19T07:09:58;9.37;;;3.23;;
15082;SDS011;7640;53.116;6.878;2023-09-19T07:12:29;10.43;;;3.27;;
15082;SDS011;7640;53.116;6.878;2023-09-19T07:15:02;10.43;;;3.30;;
15082;SDS011;7640;53.116;6.878;2023-09-19T07:17:36;9.83;;;2.90;;
15082;SDS011;7640;53.116;6.878;2023-09-19T07:20:06;11.03;;;3.27;;
15082;SDS011;7640;53.116;6.878;2023-09-19T07:22:49;10.03;;;3.43;;
15082;SDS011;7640;53.116;6.878;2023-09-19T07:25:25;13.10;;;2.90;;
15082;SDS011;7640;53.116;6.878;2023-09-19T07:27:58;9.63;;;3.40;;
15082;SDS011;7640;53.116;6.878;2023-09-19T07:30:35;8.73;;;2.80;;
15082;SDS011;7640;53.116;6.878;2023-09-19T07:33:08;11.07;;;3.20;;
15082;SDS011;7640;53.116;6.878;2023-09-19T07:35:44;8.37;;;3.03;;
15082;SDS011;7640;53.116;6.878;2023-09-19T07:38:15;8.90;;;2.53;;
15082;SDS011;7640;53.116;6.878;2023-09-19T07:40:50;6.97;;;2.43;;
15082;SDS011;7640;53.116;6.878;2023-09-19T07:43:21;8.33;;;2.30;;
15082;SDS011;7640;53.116;6.878;2023-09-19T07:45:52;10.97;;;2.80;;
15082;SDS011;7640;53.116;6.878;2023-09-19T07:48:23;10.27;;;2.53;;
15082;SDS011;7640;53.116;6.878;2023-09-19T07:50:52;11.30;;;2.93;;
15082;SDS011;7640;53.116;6.878;2023-09-19T07:53:23;9.60;;;2.87;;
15082;SDS011;7640;53.116;6.878;2023-09-19T07:56:01;8.07;;;2.87;;
15082;SDS011;7640;53.116;6.878;2023-09-19T07:58:38;9.50;;;2.87;;
15082;SDS011;7640;53.116;6.878;2023-09-19T08:01:10;9.97;;;2.60;;
15082;SDS011;7640;53.116;6.878;2023-09-19T08:03:43;9.63;;;3.03;;
15082;SDS011;7640;53.116;6.878;2023-09-19T08:06:15;5.10;;;2.50;;
15082;SDS011;7640;53.116;6.878;2023-09-19T08:08:45;8.67;;;2.63;;
15082;SDS011;7640;53.116;6.878;2023-09-19T08:11:17;9.00;;;2.77;;
15082;SDS011;7640;53.116;6.878;2023-09-19T08:13:48;12.50;;;2.87;;
15082;SDS011;7640;53.116;6.878;2023-09-19T08:16:23;8.47;;;2.90;;
15082;SDS011;7640;53.116;6.878;2023-09-19T08:18:56;10.67;;;3.17;;
15082;SDS011;7640;53.116;6.878;2023-09-19T08:21:28;9.53;;;2.77;;
15082;SDS011;7640;53.116;6.878;2023-09-19T08:24:00;8.83;;;2.90;;
15082;SDS011;7640;53.116;6.878;2023-09-19T08:26:39;10.57;;;2.63;;
15082;SDS011;7640;53.116;6.878;2023-09-19T08:29:12;10.73;;;2.83;;
15082;SDS011;7640;53.116;6.878;2023-09-19T08:31:42;7.07;;;2.60;;
15082;SDS011;7640;53.116;6.878;2023-09-19T08:34:14;7.87;;;2.70;;
15082;SDS011;7640;53.116;6.878;2023-09-19T08:36:44;8.80;;;3.07;;
15082;SDS011;7640;53.116;6.878;2023-09-19T08:39:17;9.33;;;2.70;;
15082;SDS011;7640;53.116;6.878;2023-09-19T08:41:51;7.47;;;2.70;;
15082;SDS011;7640;53.116;6.878;2023-09-19T08:44:31;7.03;;;3.03;;
15082;SDS011;7640;53.116;6.878;2023-09-19T08:47:09;7.90;;;2.97;;
15082;SDS011;7640;53.116;6.878;2023-09-19T08:49:43;7.87;;;2.80;;
15082;SDS011;7640;53.116;6.878;2023-09-19T08:52:25;9.33;;;3.00;;
15082;SDS011;7640;53.116;6.878;2023-09-19T08:55:02;10.33;;;2.73;;
15082;SDS011;7640;53.116;6.878;2023-09-19T08:57:38;10.13;;;2.90;;
15082;SDS011;7640;53.116;6.878;2023-09-19T09:00:11;10.63;;;3.33;;
15082;SDS011;7640;53.116;6.878;2023-09-19T09:02:45;9.40;;;3.20;;
15082;SDS011;7640;53.116;6.878;2023-09-19T09:05:17;9.00;;;3.47;;
15082;SDS011;7640;53.116;6.878;2023-09-19T09:07:50;10.50;;;3.87;;
15082;SDS011;7640;53.116;6.878;2023-09-19T09:10:23;12.33;;;3.43;;
15082;SDS011;7640;53.116;6.878;2023-09-19T09:12:57;10.37;;;3.40;;
15082;SDS011;7640;53.116;6.878;2023-09-19T09:15:28;10.10;;;3.63;;
15082;SDS011;7640;53.116;6.878;2023-09-19T09:18:01;12.37;;;3.80;;
15082;SDS011;7640;53.116;6.878;2023-09-19T09:20:32;13.90;;;4.00;;
15082;SDS011;7640;53.116;6.878;2023-09-19T09:23:04;10.90;;;3.70;;
15082;SDS011;7640;53.116;6.878;2023-09-19T09:25:47;12.97;;;4.30;;
15082;SDS011;7640;53.116;6.878;2023-09-19T09:28:24;11.57;;;3.73;;
15082;SDS011;7640;53.116;6.878;2023-09-19T09:30:56;10.87;;;3.63;;
15082;SDS011;7640;53.116;6.878;2023-09-19T09:33:27;9.13;;;3.63;;
15082;SDS011;7640;53.116;6.878;2023-09-19T09:36:00;13.90;;;3.40;;
15082;SDS011;7640;53.116;6.878;2023-09-19T09:38:43;9.27;;;3.13;;
15082;SDS011;7640;53.116;6.878;2023-09-19T09:41:16;12.47;;;3.43;;
15082;SDS011;7640;53.116;6.878;2023-09-19T09:43:55;10.87;;;3.10;;
15082;SDS011;7640;53.116;6.878;2023-09-19T09:46:26;9.73;;;3.17;;
15082;SDS011;7640;53.116;6.878;2023-09-19T09:49:12;13.93;;;2.93;;
15082;SDS011;7640;53.116;6.878;2023-09-19T09:51:59;10.70;;;3.00;;
15082;SDS011;7640;53.116;6.878;2023-09-19T09:54:37;8.20;;;3.33;;
15082;SDS011;7640;53.116;6.878;2023-09-19T09:57:10;10.50;;;3.07;;
15082;SDS011;7640;53.116;6.878;2023-09-19T09:59:48;10.40;;;3.33;;
15082;SDS011;7640;53.116;6.878;2023-09-19T10:02:20;10.97;;;3.43;;
15082;SDS011;7640;53.116;6.878;2023-09-19T10:05:03;9.33;;;3.10;;
15082;SDS011;7640;53.116;6.878;2023-09-19T10:07:49;9.40;;;3.30;;
15082;SDS011;7640;53.116;6.878;2023-09-19T10:10:33;8.23;;;2.93;;
15082;SDS011;7640;53.116;6.878;2023-09-19T10:13:21;8.90;;;3.47;;
15082;SDS011;7640;53.116;6.878;2023-09-19T10:16:01;8.73;;;3.23;;
15082;SDS011;7640;53.116;6.878;2023-09-19T10:18:39;9.00;;;2.70;;
15082;SDS011;7640;53.116;6.878;2023-09-19T10:21:12;8.73;;;3.10;;
15082;SDS011;7640;53.116;6.878;2023-09-19T10:23:49;11.13;;;3.17;;
15082;SDS011;7640;53.116;6.878;2023-09-19T10:26:24;11.03;;;3.50;;
15082;SDS011;7640;53.116;6.878;2023-09-19T10:29:05;6.83;;;2.73;;
15082;SDS011;7640;53.116;6.878;2023-09-19T10:31:38;14.07;;;3.33;;
15082;SDS011;7640;53.116;6.878;2023-09-19T10:34:17;8.03;;;3.00;;
15082;SDS011;7640;53.116;6.878;2023-09-19T10:36:47;9.37;;;3.10;;
15082;SDS011;7640;53.116;6.878;2023-09-19T10:39:18;9.47;;;2.93;;
15082;SDS011;7640;53.116;6.878;2023-09-19T10:41:50;11.23;;;3.13;;
15082;SDS011;7640;53.116;6.878;2023-09-19T10:44:27;12.83;;;3.10;;
15082;SDS011;7640;53.116;6.878;2023-09-19T10:47:03;10.53;;;2.80;;
15082;SDS011;7640;53.116;6.878;2023-09-19T10:49:35;8.37;;;2.77;;
15082;SDS011;7640;53.116;6.878;2023-09-19T10:52:15;12.37;;;3.57;;
15082;SDS011;7640;53.116;6.878;2023-09-19T10:54:50;9.40;;;3.10;;
15082;SDS011;7640;53.116;6.878;2023-09-19T10:57:35;10.93;;;3.17;;
15082;SDS011;7640;53.116;6.878;2023-09-19T11:00:11;7.90;;;3.00;;
15082;SDS011;7640;53.116;6.878;2023-09-19T11:06:09;8.67;;;2.87;;
15082;SDS011;7640;53.116;6.878;2023-09-19T11:08:54;10.00;;;3.10;;
15082;SDS011;7640;53.116;6.878;2023-09-19T11:11:45;10.13;;;3.43;;
15082;SDS011;7640;53.116;6.878;2023-09-19T11:14:30;8.10;;;3.07;;
15082;SDS011;7640;53.116;6.878;2023-09-19T11:20:24;8.70;;;3.07;;
15082;SDS011;7640;53.116;6.878;2023-09-19T11:25:54;9.80;;;2.67;;
15082;SDS011;7640;53.116;6.878;2023-09-19T11:28:31;10.30;;;3.47;;
15082;SDS011;7640;53.116;6.878;2023-09-19T11:40:46;6.87;;;2.30;;
15082;SDS011;7640;53.116;6.878;2023-09-19T11:43:28;9.60;;;3.00;;
15082;SDS011;7640;53.116;6.878;2023-09-19T11:46:07;7.03;;;2.70;;
15082;SDS011;7640;53.116;6.878;2023-09-19T11:48:39;6.97;;;2.60;;
15082;SDS011;7640;53.116;6.878;2023-09-19T11:51:15;7.73;;;3.00;;
15082;SDS011;7640;53.116;6.878;2023-09-19T11:54:04;8.90;;;2.90;;
15082;SDS011;7640;53.116;6.878;2023-09-19T11:56:42;9.73;;;2.60;;
15082;SDS011;7640;53.116;6.878;2023-09-19T11:59:19;7.20;;;2.53;;
15082;SDS011;7640;53.116;6.878;2023-09-19T12:01:52;6.50;;;2.70;;
15082;SDS011;7640;53.116;6.878;2023-09-19T12:04:36;7.50;;;2.60;;
15082;SDS011;7640;53.116;6.878;2023-09-19T12:07:10;11.87;;;3.33;;
15082;SDS011;7640;53.116;6.878;2023-09-19T12:10:04;9.50;;;2.50;;
15082;SDS011;7640;53.116;6.878;2023-09-19T12:12:39;10.70;;;3.33;;
15082;SDS011;7640;53.116;6.878;2023-09-19T12:15:09;8.40;;;2.77;;
15082;SDS011;7640;53.116;6.878;2023-09-19T12:17:43;8.87;;;2.80;;
15082;SDS011;7640;53.116;6.878;2023-09-19T12:20:13;6.90;;;2.30;;
15082;SDS011;7640;53.116;6.878;2023-09-19T12:22:46;8.43;;;2.70;;
15082;SDS011;7640;53.116;6.878;2023-09-19T12:25:19;8.10;;;2.40;;
15082;SDS011;7640;53.116;6.878;2023-09-19T12:27:52;7.87;;;3.07;;
15082;SDS011;7640;53.116;6.878;2023-09-19T12:30:27;7.80;;;2.63;;
15082;SDS011;7640;53.116;6.878;2023-09-19T12:33:00;9.03;;;2.90;;
15082;SDS011;7640;53.116;6.878;2023-09-19T12:35:34;8.03;;;2.60;;
15082;SDS011;7640;53.116;6.878;2023-09-19T12:38:06;8.80;;;2.57;;
15082;SDS011;7640;53.116;6.878;2023-09-19T12:40:39;10.13;;;2.70;;
15082;SDS011;7640;53.116;6.878;2023-09-19T12:43:09;6.20;;;2.60;;
15082;SDS011;7640;53.116;6.878;2023-09-19T12:45:42;9.70;;;2.97;;
15082;SDS011;7640;53.116;6.878;2023-09-19T12:48:18;7.87;;;2.73;;
15082;SDS011;7640;53.116;6.878;2023-09-19T12:51:02;6.60;;;2.30;;
15082;SDS011;7640;53.116;6.878;2023-09-19T12:53:37;6.87;;;2.40;;
15082;SDS011;7640;53.116;6.878;2023-09-19T12:56:13;10.07;;;2.30;;
15082;SDS011;7640;53.116;6.878;2023-09-19T12:58:48;7.17;;;2.70;;
15082;SDS011;7640;53.116;6.878;2023-09-19T13:01:21;7.70;;;2.67;;
15082;SDS011;7640;53.116;6.878;2023-09-19T13:04:12;12.10;;;2.77;;
15082;SDS011;7640;53.116;6.878;2023-09-19T13:06:52;9.43;;;2.57;;
15082;SDS011;7640;53.116;6.878;2023-09-19T13:09:29;10.03;;;2.47;;
15082;SDS011;7640;53.116;6.878;2023-09-19T13:12:06;7.30;;;2.53;;
15082;SDS011;7640;53.116;6.878;2023-09-19T13:15:10;6.93;;;2.60;;
15082;SDS011;7640;53.116;6.878;2023-09-19T13:17:47;5.37;;;2.67;;
15082;SDS011;7640;53.116;6.878;2023-09-19T13:20:21;6.27;;;2.20;;
15082;SDS011;7640;53.116;6.878;2023-09-19T13:23:25;5.83;;;2.30;;
15082;SDS011;7640;53.116;6.878;2023-09-19T13:25:56;7.77;;;2.37;;
15082;SDS011;7640;53.116;6.878;2023-09-19T13:28:28;6.97;;;2.50;;
15082;SDS011;7640;53.116;6.878;2023-09-19T13:30:59;6.63;;;2.27;;
15082;SDS011;7640;53.116;6.878;2023-09-19T13:33:33;6.47;;;2.40;;
15082;SDS011;7640;53.116;6.878;2023-09-19T13:36:05;7.63;;;2.83;;
15082;SDS011;7640;53.116;6.878;2023-09-19T13:38:37;7.70;;;2.43;;
15082;SDS011;7640;53.116;6.878;2023-09-19T13:41:15;7.50;;;2.40;;
15082;SDS011;7640;53.116;6.878;2023-09-19T13:43:46;5.80;;;2.60;;
15082;SDS011;7640;53.116;6.878;2023-09-19T13:46:24;5.10;;;2.10;;
15082;SDS011;7640;53.116;6.878;2023-09-19T13:49:00;6.80;;;2.60;;
15082;SDS011;7640;53.116;6.878;2023-09-19T13:51:35;7.60;;;2.47;;
15082;SDS011;7640;53.116;6.878;2023-09-19T13:54:06;6.30;;;2.30;;
15082;SDS011;7640;53.116;6.878;2023-09-19T13:56:38;7.17;;;2.30;;
15082;SDS011;7640;53.116;6.878;2023-09-19T13:59:10;8.47;;;2.70;;
15082;SDS011;7640;53.116;6.878;2023-09-19T14:01:39;5.40;;;2.10;;
15082;SDS011;7640;53.116;6.878;2023-09-19T14:04:10;4.83;;;2.53;;
15082;SDS011;7640;53.116;6.878;2023-09-19T14:06:41;8.20;;;2.50;;
15082;SDS011;7640;53.116;6.878;2023-09-19T14:09:13;5.87;;;2.30;;
15082;SDS011;7640;53.116;6.878;2023-09-19T14:11:48;6.10;;;2.30;;
15082;SDS011;7640;53.116;6.878;2023-09-19T14:14:21;6.30;;;2.60;;
15082;SDS011;7640;53.116;6.878;2023-09-19T14:16:52;7.13;;;2.57;;
15082;SDS011;7640;53.116;6.878;2023-09-19T14:19:22;8.17;;;2.10;;
15082;SDS011;7640;53.116;6.878;2023-09-19T14:21:51;4.47;;;1.87;;
15082;SDS011;7640;53.116;6.878;2023-09-19T14:24:23;7.30;;;2.23;;
15082;SDS011;7640;53.116;6.878;2023-09-19T14:26:53;6.83;;;2.00;;
15082;SDS011;7640;53.116;6.878;2023-09-19T14:29:38;5.67;;;2.10;;
15082;SDS011;7640;53.116;6.878;2023-09-19T14:32:09;5.43;;;1.83;;
15082;SDS011;7640;53.116;6.878;2023-09-19T14:34:41;4.77;;;1.77;;
15082;SDS011;7640;53.116;6.878;2023-09-19T14:37:13;5.87;;;1.77;;
15082;SDS011;7640;53.116;6.878;2023-09-19T14:39:43;7.20;;;2.03;;
15082;SDS011;7640;53.116;6.878;2023-09-19T14:42:15;6.17;;;2.33;;
15082;SDS011;7640;53.116;6.878;2023-09-19T14:44:46;4.23;;;1.60;;
15082;SDS011;7640;53.116;6.878;2023-09-19T14:47:17;5.83;;;1.70;;
15082;SDS011;7640;53.116;6.878;2023-09-19T14:49:50;4.70;;;1.70;;
15082;SDS011;7640;53.116;6.878;2023-09-19T14:52:21;4.17;;;2.17;;
15082;SDS011;7640;53.116;6.878;2023-09-19T14:54:50;7.73;;;1.90;;
15082;SDS011;7640;53.116;6.878;2023-09-19T14:57:25;7.00;;;1.90;;
15082;SDS011;7640;53.116;6.878;2023-09-19T14:59:59;4.90;;;1.87;;
15082;SDS011;7640;53.116;6.878;2023-09-19T15:02:34;4.50;;;1.83;;
15082;SDS011;7640;53.116;6.878;2023-09-19T15:05:06;3.90;;;1.60;;
15082;SDS011;7640;53.116;6.878;2023-09-19T15:07:36;3.97;;;1.70;;
15082;SDS011;7640;53.116;6.878;2023-09-19T15:10:08;5.43;;;1.93;;
15082;SDS011;7640;53.116;6.878;2023-09-19T15:12:40;4.30;;;1.60;;
15082;SDS011;7640;53.116;6.878;2023-09-19T15:15:11;3.87;;;1.50;;
15082;SDS011;7640;53.116;6.878;2023-09-19T15:17:43;5.90;;;1.80;;
15082;SDS011;7640;53.116;6.878;2023-09-19T15:20:14;3.23;;;1.60;;
15082;SDS011;7640;53.116;6.878;2023-09-19T15:22:46;4.40;;;1.40;;
15082;SDS011;7640;53.116;6.878;2023-09-19T15:25:16;5.40;;;1.80;;
15082;SDS011;7640;53.116;6.878;2023-09-19T15:27:46;6.60;;;1.97;;
15082;SDS011;7640;53.116;6.878;2023-09-19T15:30:21;3.63;;;1.60;;
15082;SDS011;7640;53.116;6.878;2023-09-19T15:32:53;5.40;;;2.30;;
15082;SDS011;7640;53.116;6.878;2023-09-19T15:35:27;5.00;;;1.80;;
15082;SDS011;7640;53.116;6.878;2023-09-19T15:37:56;3.67;;;1.60;;
15082;SDS011;7640;53.116;6.878;2023-09-19T15:40:29;2.83;;;1.67;;
15082;SDS011;7640;53.116;6.878;2023-09-19T15:42:59;4.13;;;1.77;;
15082;SDS011;7640;53.116;6.878;2023-09-19T15:45:34;4.13;;;1.67;;
15082;SDS011;7640;53.116;6.878;2023-09-19T15:48:12;2.40;;;1.43;;
15082;SDS011;7640;53.116;6.878;2023-09-19T15:50:44;7.30;;;2.10;;
15082;SDS011;7640;53.116;6.878;2023-09-19T15:53:15;5.93;;;2.00;;
15082;SDS011;7640;53.116;6.878;2023-09-19T15:55:46;3.90;;;1.87;;
15082;SDS011;7640;53.116;6.878;2023-09-19T15:58:16;3.97;;;2.13;;
15082;SDS011;7640;53.116;6.878;2023-09-19T16:00:47;4.77;;;2.10;;
15082;SDS011;7640;53.116;6.878;2023-09-19T16:03:19;3.37;;;1.60;;